Vananda, Canada
Current Conditions -  °F | °C
As of 7:00 PM on Wednesday 22 Oct 2014 (Local Time) from CYPW Reporting Station
Thunderstorm Thunderstorm  
Wind Chill: 50°   Ceiling: 800
Heat Index: 50°   Visibility: 3mi
Dew Point: 50°   Wind: 13mph
Humidity: 100%   Direction: 310°NW
Pressure: 29.51"   Gusts: NA
Location:  49.76°N, 124.55°W
Report Text: CYPW 230200Z 31011KT 230V330 3SM +TSRA BR SCT004 BKN008 OVC015 10/10 A2951 RMK SF3SF3SC2 CB EMBD LAST OBS/NEXT 231300 UTC SLP992
Loading
Personal Weather Stations






























Interactive Weather Map
Tropical Storm Tracking
New forecast layout! Learn more

10-Day Weather Forecast

Advertisements
Track Severe Weather on mobile